Terminal Aerodrome Forecast
Issued by NWS

Home | Current Version | Previous Version | Text Only | Print | Product List | Glossary On
Versions: 1 2 3 4 5 6 7 8 9 10 11 12 13 14 15 16 17 18 19 20 21 22 23 24 25 26 27 28 29 30 31 32 33 34 35
000
FTPA31 PHFO 021100
TAFITO
TAF
PHTO 021128Z 0212/0312 23006KT P6SM VCSH SCT030 BKN050
      TEMPO 0212/0216 SCT018 BKN025
     FM022200 07008KT P6SM SCT030 BKN050
     FM030200 VRB03KT P6SM SCT030 BKN050
     FM030500 23006KT P6SM VCSH SCT030 BKN050=

USA.gov is the U.S. government's official web portal to all federal, state and local government web resources and services.